Time,TemperatureF,DewpointF,PressureIn,WindDirection,WindDirectionDegrees,WindSpeedMPH,WindSpeedGustMPH,Humidity,HourlyPrecipIn,Conditions,Clouds,dailyrainin,SoftwareType,DateUTC
2013-02-13 00:02:00,41.0,28.0,-100.00,NE,46,1.0,-999.0,60,0.00,,,0.00,,2013-02-13 05:02:00,
2013-02-13 00:12:00,41.0,28.0,-100.00,NE,46,1.0,-999.0,60,0.00,,,0.00,,2013-02-13 05:12:00,
2013-02-13 00:52:00,38.0,28.0,-100.00,NE,49,4.0,-999.0,67,0.00,,,0.00,,2013-02-13 05:52:00,
2013-02-13 01:02:00,38.0,28.0,-100.00,NE,49,4.0,-999.0,67,0.00,,,0.00,,2013-02-13 06:02:00,
2013-02-13 01:11:00,38.0,28.0,-100.00,NE,49,4.0,-999.0,67,0.00,,,0.00,,2013-02-13 06:11:00,
2013-02-13 01:52:00,39.0,28.0,-100.00,NE,45,3.0,-999.0,64,0.00,,,0.00,,2013-02-13 06:52:00,
2013-02-13 02:02:00,39.0,28.0,-100.00,NE,45,3.0,-999.0,64,0.00,,,0.00,,2013-02-13 07:02:00,
2013-02-13 02:11:00,39.0,28.0,-100.00,NE,45,3.0,-999.0,64,0.00,,,0.00,,2013-02-13 07:11:00,
2013-02-13 02:52:00,37.0,24.0,-100.00,NE,42,3.0,-999.0,58,0.00,,,0.00,,2013-02-13 07:52:00,
2013-02-13 03:01:00,37.0,24.0,-100.00,NE,42,3.0,-999.0,58,0.00,,,0.00,,2013-02-13 08:01:00,
2013-02-13 03:11:00,37.0,24.0,-100.00,NE,42,3.0,-999.0,58,0.00,,,0.00,,2013-02-13 08:11:00,
2013-02-13 03:52:00,37.0,27.0,-100.00,East,83,3.0,-999.0,68,0.00,,,0.00,,2013-02-13 08:52:00,
2013-02-13 04:02:00,37.0,27.0,-100.00,East,83,3.0,-999.0,68,0.00,,,0.00,,2013-02-13 09:02:00,
2013-02-13 04:11:00,37.0,27.0,-100.00,East,83,3.0,-999.0,68,0.00,,,0.00,,2013-02-13 09:11:00,
2013-02-13 04:52:00,39.0,26.0,-100.00,East,80,4.0,-999.0,60,0.00,,,0.00,,2013-02-13 09:52:00,
2013-02-13 05:01:00,39.0,26.0,-100.00,East,80,4.0,-999.0,60,0.00,,,0.00,,2013-02-13 10:01:00,
2013-02-13 05:11:00,39.0,26.0,-100.00,East,80,4.0,-999.0,60,0.00,,,0.00,,2013-02-13 10:11:00,
2013-02-13 05:52:00,39.0,29.0,-100.00,ENE,76,5.0,-999.0,67,-99.99,,,0.00,,2013-02-13 10:52:00,
2013-02-13 06:01:00,39.0,29.0,-100.00,ENE,76,5.0,-999.0,67,-99.99,,,0.00,,2013-02-13 11:01:00,
2013-02-13 06:52:00,39.0,28.0,-100.00,East,80,7.0,-999.0,64,-99.99,,,0.00,,2013-02-13 11:52:00,
2013-02-13 07:02:00,39.0,28.0,-100.00,East,80,7.0,-999.0,64,-99.99,,,0.00,,2013-02-13 12:02:00,
2013-02-13 07:11:00,39.0,28.0,-100.00,East,80,7.0,-999.0,64,-99.99,,,0.00,,2013-02-13 12:11:00,
2013-02-13 07:52:00,39.0,27.0,-100.00,ENE,71,8.0,-999.0,61,0.00,,,0.00,,2013-02-13 12:52:00,
2013-02-13 08:02:00,39.0,27.0,-100.00,ENE,71,8.0,-999.0,61,0.00,,,0.00,,2013-02-13 13:02:00,
2013-02-13 08:11:00,39.0,27.0,-100.00,ENE,71,8.0,-999.0,61,0.00,,,0.00,,2013-02-13 13:11:00,
2013-02-13 08:52:00,39.0,28.0,-100.00,ENE,76,8.0,-999.0,64,0.00,,,0.00,,2013-02-13 13:52:00,
2013-02-13 09:01:00,39.0,28.0,-100.00,ENE,76,8.0,-999.0,64,0.00,,,0.00,,2013-02-13 14:01:00,
2013-02-13 09:11:00,39.0,28.0,-100.00,ENE,76,8.0,-999.0,64,0.00,,,0.00,,2013-02-13 14:11:00,
2013-02-13 09:52:00,40.0,31.0,-100.00,East,83,6.0,-999.0,69,0.00,,,0.00,,2013-02-13 14:52:00,
2013-02-13 10:02:00,40.0,31.0,-100.00,East,83,6.0,-999.0,69,0.00,,,0.00,,2013-02-13 15:02:00,
2013-02-13 10:11:00,40.0,31.0,-100.00,East,83,6.0,-999.0,69,0.00,,,0.00,,2013-02-13 15:11:00,
2013-02-13 10:52:00,39.0,30.0,-100.00,East,84,6.0,-999.0,70,0.00,,,0.00,,2013-02-13 15:52:00,
2013-02-13 11:02:00,39.0,30.0,-100.00,East,84,6.0,-999.0,70,0.00,,,0.00,,2013-02-13 16:02:00,
2013-02-13 11:12:00,39.0,30.0,-100.00,East,84,6.0,-999.0,70,0.00,,,0.00,,2013-02-13 16:12:00,
2013-02-13 11:52:00,39.0,31.0,-100.00,East,79,7.0,-999.0,73,0.00,,,0.00,,2013-02-13 16:52:00,
2013-02-13 12:02:00,39.0,31.0,-100.00,East,79,7.0,-999.0,73,0.00,,,0.00,,2013-02-13 17:02:00,
2013-02-13 12:11:00,39.0,31.0,-100.00,East,79,7.0,-999.0,73,0.00,,,0.00,,2013-02-13 17:11:00,
2013-02-13 12:52:00,41.0,34.0,-100.00,ENE,75,9.0,-999.0,76,0.00,,,0.00,,2013-02-13 17:52:00,
2013-02-13 13:02:00,41.0,34.0,-100.00,ENE,75,9.0,-999.0,76,0.00,,,0.00,,2013-02-13 18:02:00,
2013-02-13 13:11:00,41.0,34.0,-100.00,ENE,75,9.0,-999.0,76,0.00,,,0.00,,2013-02-13 18:11:00,
2013-02-13 13:52:00,41.0,33.0,-100.00,ENE,75,9.0,-999.0,74,0.00,,,0.00,,2013-02-13 18:52:00,
2013-02-13 14:01:00,41.0,33.0,-100.00,ENE,75,9.0,-999.0,74,0.00,,,0.00,,2013-02-13 19:01:00,
2013-02-13 14:11:00,41.0,33.0,-100.00,ENE,75,9.0,-999.0,74,0.00,,,0.00,,2013-02-13 19:11:00,
2013-02-13 14:52:00,40.0,34.0,-100.00,ENE,64,8.0,-999.0,78,0.00,,,0.00,,2013-02-13 19:52:00,
2013-02-13 15:02:00,40.0,34.0,-100.00,ENE,64,8.0,-999.0,78,0.00,,,0.00,,2013-02-13 20:02:00,
2013-02-13 15:11:00,40.0,34.0,-100.00,ENE,64,8.0,-999.0,78,0.00,,,0.00,,2013-02-13 20:11:00,
2013-02-13 15:52:00,41.0,36.0,-100.00,NE,48,7.0,-999.0,82,0.00,,,0.00,,2013-02-13 20:52:00,
2013-02-13 16:02:00,41.0,36.0,-100.00,NE,48,7.0,-999.0,82,0.00,,,0.00,,2013-02-13 21:02:00,
2013-02-13 16:11:00,41.0,36.0,-100.00,NE,48,7.0,-999.0,82,0.00,,,0.00,,2013-02-13 21:11:00,
2013-02-13 16:52:00,39.0,35.0,-100.00,NE,55,10.0,-999.0,84,0.00,,,0.00,,2013-02-13 21:52:00,
2013-02-13 17:02:00,39.0,35.0,-100.00,NE,55,10.0,-999.0,84,0.00,,,0.00,,2013-02-13 22:02:00,
2013-02-13 17:11:00,39.0,35.0,-100.00,NE,55,10.0,-999.0,84,0.00,,,0.00,,2013-02-13 22:11:00,
2013-02-13 17:52:00,40.0,37.0,-100.00,NE,47,10.0,-999.0,88,0.01,,,0.01,,2013-02-13 22:52:00,
2013-02-13 18:02:00,40.0,37.0,-100.00,NE,47,10.0,-999.0,88,0.01,,,0.01,,2013-02-13 23:02:00,
2013-02-13 18:11:00,40.0,37.0,-100.00,NE,47,10.0,-999.0,88,0.01,,,0.01,,2013-02-13 23:11:00,
2013-02-13 18:53:00,38.0,38.0,-100.00,NE,50,12.0,-999.0,100,0.03,,,0.04,,2013-02-13 23:53:00,
2013-02-13 19:02:00,38.0,38.0,-100.00,NE,50,12.0,-999.0,100,0.03,,,0.04,,2013-02-14 00:02:00,
2013-02-13 19:11:00,38.0,38.0,-100.00,NE,50,12.0,-999.0,100,0.03,,,0.04,,2013-02-14 00:11:00,
2013-02-13 19:52:00,39.0,39.0,-100.00,NE,40,12.0,-999.0,100,0.00,,,0.04,,2013-02-14 00:52:00,
2013-02-13 20:01:00,39.0,39.0,-100.00,NE,40,12.0,-999.0,100,0.00,,,0.04,,2013-02-14 01:01:00,
2013-02-13 20:11:00,39.0,39.0,-100.00,NE,40,12.0,-999.0,100,0.00,,,0.04,,2013-02-14 01:11:00,
2013-02-13 20:52:00,37.0,37.0,-100.00,NNE,31,11.0,-999.0,100,0.07,,,0.11,,2013-02-14 01:52:00,
2013-02-13 21:02:00,37.0,37.0,-100.00,NNE,31,11.0,-999.0,100,0.07,,,0.11,,2013-02-14 02:02:00,
2013-02-13 21:11:00,37.0,37.0,-100.00,NNE,31,11.0,-999.0,100,0.07,,,0.11,,2013-02-14 02:11:00,
2013-02-13 22:02:00,38.0,38.0,-100.00,NNE,12,12.0,-999.0,100,0.05,,,0.16,,2013-02-14 03:02:00,
2013-02-13 22:12:00,38.0,38.0,-100.00,NNE,12,12.0,-999.0,100,0.05,,,0.16,,2013-02-14 03:12:00,
2013-02-13 22:52:00,35.0,35.0,-100.00,North,6,18.0,-999.0,100,0.03,,,0.19,,2013-02-14 03:52:00,
2013-02-13 23:01:00,35.0,35.0,-100.00,North,6,18.0,-999.0,100,0.03,,,0.19,,2013-02-14 04:01:00,
2013-02-13 23:12:00,35.0,35.0,-100.00,North,6,18.0,-999.0,100,0.03,,,0.19,,2013-02-14 04:12:00,
2013-02-13 23:52:00,35.0,35.0,-100.00,North,359,17.0,-999.0,100,0.06,,,0.25,,2013-02-14 04:52:00,